Time;durP1;ratioP1;P1;durP2;ratioP2;P2;SDS_P1;SDS_P2;PMS_P1;PMS_P2;Temp;Humidity;BMP_temperature;BMP_pressure;BME280_temperature;BME280_humidity;BME280_pressure;Samples;Min_cycle;Max_cycle;Signal;HPM_P1;HPM_P2
2023/05/20 00:02:12;;;;;;;;;;;;;;;;;;5096523;28;19978;-70
2023/05/20 00:04:39;;;;;;;;;;;;;;;;;;5115053;28;19955;-70
2023/05/20 00:07:06;;;;;;;;;;;;;;;;;;5096456;28;19959;-70
2023/05/20 00:09:32;;;;;;;;;;;;;;;;;;5115059;28;19962;-70
2023/05/20 00:11:58;;;;;;;;;;;;;;;;;;5114669;28;19955;-69
2023/05/20 00:14:24;;;;;;;;;;;;;;;;;;5114597;28;20297;-70
2023/05/20 00:16:50;;;;;;;;;;;;;;;;;;5096338;28;20053;-70
2023/05/20 00:19:16;;;;;;;;;;;;;;;;;;5114569;28;19977;-70
2023/05/20 00:21:42;;;;;;;;;;;;;;;;;;5114703;28;19982;-70
2023/05/20 00:24:08;;;;;;;;;;;;;;;;;;5114765;28;19978;-70
2023/05/20 00:26:34;;;;;;;;;;;;;;;;;;5114435;28;20404;-69
2023/05/20 00:29:00;;;;;;;;;;;;;;;;;;5114944;28;19959;-70
2023/05/20 00:31:26;;;;;;;;;;;;;;;;;;5114892;28;20484;-70
2023/05/20 00:33:51;;;;;;;;;;;;;;;;;;5114577;28;20038;-70
2023/05/20 00:36:17;;;;;;;;;;;;;;;;;;5114337;28;20322;-70
2023/05/20 00:38:43;;;;;;;;;;;;;;;;;;5114559;28;20001;-70
2023/05/20 00:41:09;;;;;;;;;;;;;;;;;;5114010;28;19991;-69
2023/05/20 00:43:35;;;;;;;;;;;;;;;;;;5114515;28;19955;-70
2023/05/20 00:46:01;;;;;;;;;;;;;;;;;;5114147;28;19994;-69
2023/05/20 00:48:27;;;;;;;;;;;;;;;;;;5114196;28;19955;-69
2023/05/20 00:50:53;;;;;;;;;;;;;;;;;;5114712;28;20289;-70
2023/05/20 00:53:20;;;;;;;;;;;;;;;;;;5114402;28;19962;-70
2023/05/20 00:55:45;;;;;;;;;;;;;;;;;;5114077;28;20305;-70
2023/05/20 00:58:11;;;;;;;;;;;;;;;;;;5114013;28;20001;-69
2023/05/20 01:00:37;;;;;;;;;;;;;;;;;;5113921;28;19959;-70
2023/05/20 01:03:03;;;;;;;;;;;;;;;;;;5114550;28;20049;-69
2023/05/20 01:05:29;;;;;;;;;;;;;;;;;;5113965;28;19958;-70
2023/05/20 01:07:55;;;;;;;;;;;;;;;;;;5113943;28;20490;-69
2023/05/20 01:10:21;;;;;;;;;;;;;;;;;;5114203;28;19955;-70
2023/05/20 01:12:47;;;;;;;;;;;;;;;;;;5113874;28;20424;-69
2023/05/20 01:15:13;;;;;;;;;;;;;;;;;;5114135;28;19955;-70
2023/05/20 01:17:39;;;;;;;;;;;;;;;;;;5113857;28;20095;-70
2023/05/20 01:20:06;;;;;;;;;;;;;;;;;;5113870;28;20419;-70
2023/05/20 01:22:32;;;;;;;;;;;;;;;;;;5113997;28;20023;-70
2023/05/20 01:24:58;;;;;;;;;;;;;;;;;;5113767;28;20402;-70
2023/05/20 01:27:25;;;;;;;;;;;;;;;;;;5114071;28;19959;-69
2023/05/20 01:29:51;;;;;;;;;;;;;;;;;;5095800;28;19959;-69
2023/05/20 01:32:17;;;;;;;;;;;;;;;;;;5113922;28;20020;-69
2023/05/20 01:34:44;;;;;;;;;;;;;;;;;;5113944;28;19954;-69
2023/05/20 01:37:10;;;;;;;;;;;;;;;;;;5113730;28;19959;-69
2023/05/20 01:39:36;;;;;;;;;;;;;;;;;;5095113;28;19994;-69
2023/05/20 01:42:02;;;;;;;;;;;;;;;;;;5114098;28;20497;-69
2023/05/20 01:44:28;;;;;;;;;;;;;;;;;;5113596;28;19977;-71
2023/05/20 01:46:54;;;;;;;;;;;;;;;;;;5113595;28;20004;-70
2023/05/20 01:49:20;;;;;;;;;;;;;;;;;;5113599;28;19955;-70
2023/05/20 01:51:46;;;;;;;;;;;;;;;;;;5114105;28;19962;-70
2023/05/20 01:54:12;;;;;;;;;;;;;;;;;;5113520;28;19955;-70
2023/05/20 01:56:38;;;;;;;;;;;;;;;;;;5113543;28;20046;-70
2023/05/20 01:59:04;;;;;;;;;;;;;;;;;;5113773;28;19965;-70
2023/05/20 02:01:30;;;;;;;;;;;;;;;;;;5113415;28;20442;-70
2023/05/20 02:03:55;;;;;;;;;;;;;;;;;;5113432;28;20448;-70
2023/05/20 02:06:21;;;;;;;;;;;;;;;;;;5113711;28;19955;-70
2023/05/20 02:08:47;;;;;;;;;;;;;;;;;;5113619;28;19955;-70
2023/05/20 02:11:13;;;;;;;;;;;;;;;;;;5117008;28;19955;-70
2023/05/20 02:13:39;;;;;;;;;;;;;;;;;;5117552;28;20448;-69
2023/05/20 02:16:05;;;;;;;;;;;;;;;;;;5116967;28;19955;-69
2023/05/20 02:18:34;;;;;;;;;;;;;;;;;;5117557;28;20468;-70
2023/05/20 02:20:59;;;;;;;;;;;;;;;;;;5116805;28;19985;-70
2023/05/20 02:23:25;;;;;;;;;;;;;;;;;;5117108;28;19955;-70
2023/05/20 02:25:51;;;;;;;;;;;;;;;;;;5116764;28;20328;-70
2023/05/20 02:28:17;;;;;;;;;;;;;;;;;;5117231;28;19989;-70
2023/05/20 02:30:43;;;;;;;;;;;;;;;;;;5116880;28;19955;-70
2023/05/20 02:33:09;;;;;;;;;;;;;;;;;;5116888;28;20400;-70
2023/05/20 02:35:35;;;;;;;;;;;;;;;;;;5117123;28;19961;-70
2023/05/20 02:38:01;;;;;;;;;;;;;;;;;;5116479;28;19978;-70
2023/05/20 02:40:26;;;;;;;;;;;;;;;;;;5116263;28;19998;-70
2023/05/20 02:42:52;;;;;;;;;;;;;;;;;;5116637;28;19979;-69
2023/05/20 02:45:18;;;;;;;;;;;;;;;;;;5116634;28;19955;-69
2023/05/20 02:47:44;;;;;;;;;;;;;;;;;;5116945;28;20009;-70
2023/05/20 02:50:10;;;;;;;;;;;;;;;;;;5097964;28;20457;-69
2023/05/20 02:52:36;;;;;;;;;;;;;;;;;;5116245;28;19989;-69
2023/05/20 02:55:02;;;;;;;;;;;;;;;;;;5116177;28;19959;-70
2023/05/20 02:57:28;;;;;;;;;;;;;;;;;;5116389;28;19955;-69
2023/05/20 02:59:54;;;;;;;;;;;;;;;;;;5116082;28;19959;-69
2023/05/20 03:02:22;;;;;;;;;;;;;;;;;;5115961;28;19975;-69
2023/05/20 03:04:49;;;;;;;;;;;;;;;;;;5116008;28;19955;-70
2023/05/20 03:07:18;;;;;;;;;;;;;;;;;;5115922;28;20004;-69
2023/05/20 03:09:44;;;;;;;;;;;;;;;;;;5115885;28;19959;-70
2023/05/20 03:12:10;;;;;;;;;;;;;;;;;;5097534;28;19965;-69
2023/05/20 03:14:36;;;;;;;;;;;;;;;;;;5116070;28;19955;-70
2023/05/20 03:17:02;;;;;;;;;;;;;;;;;;5116012;28;20403;-70
2023/05/20 03:19:28;;;;;;;;;;;;;;;;;;5116000;28;19955;-69
2023/05/20 03:21:54;;;;;;;;;;;;;;;;;;5115387;28;20471;-70
2023/05/20 03:24:22;;;;;;;;;;;;;;;;;;5115654;28;20102;-69
2023/05/20 03:26:48;;;;;;;;;;;;;;;;;;5097238;28;19966;-70
2023/05/20 03:29:13;;;;;;;;;;;;;;;;;;5116056;28;19959;-70
2023/05/20 03:31:40;;;;;;;;;;;;;;;;;;5115641;28;20022;-70
2023/05/20 03:34:06;;;;;;;;;;;;;;;;;;5115416;28;19961;-70
2023/05/20 03:36:32;;;;;;;;;;;;;;;;;;5115356;28;20034;-70
2023/05/20 03:38:58;;;;;;;;;;;;;;;;;;5115633;28;19955;-70
2023/05/20 03:41:24;;;;;;;;;;;;;;;;;;5115533;28;19978;-70
2023/05/20 03:43:49;;;;;;;;;;;;;;;;;;5115197;28;19955;-70
2023/05/20 03:46:15;;;;;;;;;;;;;;;;;;5115430;28;20015;-70
2023/05/20 03:48:41;;;;;;;;;;;;;;;;;;5115371;28;19955;-70
2023/05/20 03:51:07;;;;;;;;;;;;;;;;;;5115656;28;19962;-70
2023/05/20 03:53:33;;;;;;;;;;;;;;;;;;5115036;28;20332;-70
2023/05/20 03:55:59;;;;;;;;;;;;;;;;;;5115305;28;19955;-70
2023/05/20 03:58:25;;;;;;;;;;;;;;;;;;5114904;28;20001;-69
2023/05/20 04:00:51;;;;;;;;;;;;;;;;;;5115396;28;20501;-70
2023/05/20 04:03:17;;;;;;;;;;;;;;;;;;5114849;28;19992;-69
2023/05/20 04:05:44;;;;;;;;;;;;;;;;;;5115118;28;19955;-70
2023/05/20 04:08:12;;;;;;;;;;;;;;;;;;5114853;28;19959;-69
2023/05/20 04:10:38;;;;;;;;;;;;;;;;;;5114714;28;19954;-70
2023/05/20 04:13:04;;;;;;;;;;;;;;;;;;5114974;28;19965;-69
2023/05/20 04:15:30;;;;;;;;;;;;;;;;;;5114631;28;20408;-70
2023/05/20 04:17:55;;;;;;;;;;;;;;;;;;5114911;28;19954;-70
2023/05/20 04:20:23;;;;;;;;;;;;;;;;;;5114555;28;20413;-69
2023/05/20 04:22:49;;;;;;;;;;;;;;;;;;5114495;28;19975;-69
2023/05/20 04:25:15;;;;;;;;;;;;;;;;;;5114518;28;19954;-69
2023/05/20 04:27:42;;;;;;;;;;;;;;;;;;5114726;28;19955;-69
2023/05/20 04:30:09;;;;;;;;;;;;;;;;;;5114996;28;19962;-70
2023/05/20 04:32:35;;;;;;;;;;;;;;;;;;5095263;28;20059;-70
2023/05/20 04:35:01;;;;;;;;;;;;;;;;;;5114598;28;20404;-70
2023/05/20 04:37:27;;;;;;;;;;;;;;;;;;5114267;28;19961;-70
2023/05/20 04:39:53;;;;;;;;;;;;;;;;;;5114240;28;20033;-71
2023/05/20 04:42:21;;;;;;;;;;;;;;;;;;5114176;28;20073;-70
2023/05/20 04:44:47;;;;;;;;;;;;;;;;;;5096805;28;19966;-69
2023/05/20 04:47:13;;;;;;;;;;;;;;;;;;5114461;28;19956;-69
2023/05/20 04:49:38;;;;;;;;;;;;;;;;;;5114120;28;20496;-73
2023/05/20 04:52:04;;;;;;;;;;;;;;;;;;5095905;28;19963;-75
2023/05/20 04:54:31;;;;;;;;;;;;;;;;;;5114325;28;20304;-78
2023/05/20 04:56:57;;;;;;;;;;;;;;;;;;5114077;28;20025;-67
2023/05/20 04:59:23;;;;;;;;;;;;;;;;;;5114056;28;20413;-68
2023/05/20 05:01:49;;;;;;;;;;;;;;;;;;5114002;28;20069;-68
2023/05/20 05:04:15;;;;;;;;;;;;;;;;;;5114025;28;20381;-68
2023/05/20 05:06:41;;;;;;;;;;;;;;;;;;5113974;28;19955;-68
2023/05/20 05:09:06;;;;;;;;;;;;;;;;;;5114223;28;19955;-68
2023/05/20 05:11:32;;;;;;;;;;;;;;;;;;5114233;28;19955;-68
2023/05/20 05:13:58;;;;;;;;;;;;;;;;;;5114464;28;19990;-68
2023/05/20 05:16:25;;;;;;;;;;;;;;;;;;5113904;28;20436;-68
2023/05/20 05:18:51;;;;;;;;;;;;;;;;;;5095410;28;19959;-67
2023/05/20 05:21:17;;;;;;;;;;;;;;;;;;5113774;28;20458;-68
2023/05/20 05:23:43;;;;;;;;;;;;;;;;;;5113818;28;19959;-68
2023/05/20 05:26:09;;;;;;;;;;;;;;;;;;5114038;28;20325;-68
2023/05/20 05:28:35;;;;;;;;;;;;;;;;;;5114302;28;19945;-68
2023/05/20 05:31:01;;;;;;;;;;;;;;;;;;5114113;28;20515;-68
2023/05/20 05:33:27;;;;;;;;;;;;;;;;;;5114022;28;19958;-68
2023/05/20 05:35:52;;;;;;;;;;;;;;;;;;5114006;28;20329;-68
2023/05/20 05:38:18;;;;;;;;;;;;;;;;;;5113953;28;19955;-68
2023/05/20 05:40:44;;;;;;;;;;;;;;;;;;5113190;28;20490;-68
2023/05/20 05:43:10;;;;;;;;;;;;;;;;;;5114448;28;19955;-68
2023/05/20 05:45:36;;;;;;;;;;;;;;;;;;5117835;28;19954;-68
2023/05/20 05:48:02;;;;;;;;;;;;;;;;;;5117478;28;19955;-68
2023/05/20 05:50:28;;;;;;;;;;;;;;;;;;5117443;28;20373;-68
2023/05/20 05:52:54;;;;;;;;;;;;;;;;;;5117710;28;19998;-68
2023/05/20 05:55:20;;;;;;;;;;;;;;;;;;5117371;28;19954;-68
2023/05/20 05:57:46;;;;;;;;;;;;;;;;;;5117331;28;19980;-69
2023/05/20 06:00:11;;;;;;;;;;;;;;;;;;5117275;28;19981;-69
2023/05/20 06:02:37;;;;;;;;;;;;;;;;;;5117429;28;20077;-68
2023/05/20 06:05:03;;;;;;;;;;;;;;;;;;5117184;28;19955;-68
2023/05/20 06:07:29;;;;;;;;;;;;;;;;;;5117433;28;19955;-68
2023/05/20 06:09:55;;;;;;;;;;;;;;;;;;5117082;28;20431;-69
2023/05/20 06:12:21;;;;;;;;;;;;;;;;;;5117047;28;19955;-69
2023/05/20 06:14:47;;;;;;;;;;;;;;;;;;5117548;28;19955;-68
2023/05/20 06:17:14;;;;;;;;;;;;;;;;;;5117219;28;19962;-68
2023/05/20 06:19:39;;;;;;;;;;;;;;;;;;5098397;28;19989;-68
2023/05/20 06:22:05;;;;;;;;;;;;;;;;;;5098427;28;19979;-68
2023/05/20 06:24:31;;;;;;;;;;;;;;;;;;5116774;28;20002;-68
2023/05/20 06:26:57;;;;;;;;;;;;;;;;;;5117013;28;19962;-68
2023/05/20 06:29:23;;;;;;;;;;;;;;;;;;5117196;28;20008;-68
2023/05/20 06:31:49;;;;;;;;;;;;;;;;;;5116727;28;19971;-68
2023/05/20 06:34:15;;;;;;;;;;;;;;;;;;5116672;28;19962;-68
2023/05/20 06:36:42;;;;;;;;;;;;;;;;;;5116848;28;19955;-68
2023/05/20 06:39:11;;;;;;;;;;;;;;;;;;5097849;28;19998;-69
2023/05/20 06:41:37;;;;;;;;;;;;;;;;;;5116742;28;19987;-68
2023/05/20 06:44:02;;;;;;;;;;;;;;;;;;5116466;28;19955;-68
2023/05/20 06:46:28;;;;;;;;;;;;;;;;;;5116410;28;20298;-69
2023/05/20 06:48:54;;;;;;;;;;;;;;;;;;5116356;28;19966;-68
2023/05/20 06:51:20;;;;;;;;;;;;;;;;;;5116271;28;20110;-69
2023/05/20 06:53:46;;;;;;;;;;;;;;;;;;5116234;28;19986;-69
2023/05/20 06:56:12;;;;;;;;;;;;;;;;;;5115602;28;19986;-68
2023/05/20 06:58:38;;;;;;;;;;;;;;;;;;5116111;28;20333;-69
2023/05/20 07:01:04;;;;;;;;;;;;;;;;;;5116020;28;20081;-68
2023/05/20 07:03:30;;;;;;;;;;;;;;;;;;5115994;28;20020;-69
2023/05/20 07:05:56;;;;;;;;;;;;;;;;;;5116269;28;19953;-69
2023/05/20 07:08:22;;;;;;;;;;;;;;;;;;5115961;28;19978;-69
2023/05/20 07:10:48;;;;;;;;;;;;;;;;;;5115799;28;19977;-69
2023/05/20 07:13:14;;;;;;;;;;;;;;;;;;5115758;28;19959;-70
2023/05/20 07:15:40;;;;;;;;;;;;;;;;;;5116029;28;19955;-70
2023/05/20 07:18:06;;;;;;;;;;;;;;;;;;5097206;28;19959;-70
2023/05/20 07:20:32;;;;;;;;;;;;;;;;;;5115948;28;20047;-70
2023/05/20 07:22:57;;;;;;;;;;;;;;;;;;5115519;28;20430;-70
2023/05/20 07:25:23;;;;;;;;;;;;;;;;;;5115660;28;19961;-71
2023/05/20 07:27:49;;;;;;;;;;;;;;;;;;5115278;28;19958;-71
2023/05/20 07:30:15;;;;;;;;;;;;;;;;;;5116256;28;19955;-71
2023/05/20 07:32:41;;;;;;;;;;;;;;;;;;5115093;28;20085;-70
2023/05/20 07:35:07;;;;;;;;;;;;;;;;;;5115468;28;19955;-70
2023/05/20 07:37:33;;;;;;;;;;;;;;;;;;5115337;28;19955;-71
2023/05/20 07:39:59;;;;;;;;;;;;;;;;;;5115203;28;20084;-71
2023/05/20 07:42:25;;;;;;;;;;;;;;;;;;5115814;28;19973;-70
2023/05/20 07:44:51;;;;;;;;;;;;;;;;;;5115167;28;19962;-70
2023/05/20 07:47:17;;;;;;;;;;;;;;;;;;5115052;28;19966;-70
2023/05/20 07:49:43;;;;;;;;;;;;;;;;;;5115121;28;19955;-71
2023/05/20 07:52:09;;;;;;;;;;;;;;;;;;5113597;28;19962;-71
2023/05/20 07:54:35;;;;;;;;;;;;;;;;;;5114287;28;19958;-70
2023/05/20 07:57:01;;;;;;;;;;;;;;;;;;5114652;28;19955;-70
2023/05/20 07:59:27;;;;;;;;;;;;;;;;;;5114310;28;19955;-70
2023/05/20 08:01:53;;;;;;;;;;;;;;;;;;5114273;28;20063;-70
2023/05/20 08:04:19;;;;;;;;;;;;;;;;;;5114595;28;19955;-69
2023/05/20 08:06:45;;;;;;;;;;;;;;;;;;5115066;28;20008;-70
2023/05/20 08:09:11;;;;;;;;;;;;;;;;;;5114680;28;19961;-69
2023/05/20 08:11:37;;;;;;;;;;;;;;;;;;5114367;28;20052;-69
2023/05/20 08:14:03;;;;;;;;;;;;;;;;;;5114635;28;19955;-69
2023/05/20 08:16:29;;;;;;;;;;;;;;;;;;5114096;28;19999;-68
2023/05/20 08:18:55;;;;;;;;;;;;;;;;;;5113444;28;20015;-69
2023/05/20 08:21:21;;;;;;;;;;;;;;;;;;5112964;28;20440;-70
2023/05/20 08:23:47;;;;;;;;;;;;;;;;;;5114103;28;19954;-70
2023/05/20 08:26:13;;;;;;;;;;;;;;;;;;5114308;28;20314;-70
2023/05/20 08:28:39;;;;;;;;;;;;;;;;;;5114647;28;20000;-69
2023/05/20 08:31:05;;;;;;;;;;;;;;;;;;5114849;28;19977;-69
2023/05/20 08:33:31;;;;;;;;;;;;;;;;;;5114236;28;20428;-70
2023/05/20 08:35:57;;;;;;;;;;;;;;;;;;5114193;28;19993;-71
2023/05/20 08:38:22;;;;;;;;;;;;;;;;;;5114241;28;19990;-70
2023/05/20 08:40:48;;;;;;;;;;;;;;;;;;5113949;28;19996;-69
2023/05/20 08:43:14;;;;;;;;;;;;;;;;;;5114436;28;19962;-69
2023/05/20 08:45:40;;;;;;;;;;;;;;;;;;5114394;28;20411;-70
2023/05/20 08:48:06;;;;;;;;;;;;;;;;;;5114023;28;19955;-70
2023/05/20 08:50:32;;;;;;;;;;;;;;;;;;5114151;28;20336;-70
2023/05/20 08:52:58;;;;;;;;;;;;;;;;;;5113976;28;20325;-71
2023/05/20 08:55:24;;;;;;;;;;;;;;;;;;5114032;28;20116;-71
2023/05/20 08:57:50;;;;;;;;;;;;;;;;;;5113920;28;20400;-71
2023/05/20 09:00:16;;;;;;;;;;;;;;;;;;5114098;28;19962;-71
2023/05/20 09:02:41;;;;;;;;;;;;;;;;;;5113631;28;20344;-71
2023/05/20 09:05:08;;;;;;;;;;;;;;;;;;5112688;28;19955;-71
2023/05/20 09:07:33;;;;;;;;;;;;;;;;;;5113241;28;19978;-70
2023/05/20 09:09:59;;;;;;;;;;;;;;;;;;5114355;28;20393;-71
2023/05/20 09:12:25;;;;;;;;;;;;;;;;;;5113372;28;19990;-71
2023/05/20 09:14:51;;;;;;;;;;;;;;;;;;5113761;28;20045;-71
2023/05/20 09:17:17;;;;;;;;;;;;;;;;;;5113979;28;19961;-71
2023/05/20 09:19:43;;;;;;;;;;;;;;;;;;5098843;28;20062;-71
2023/05/20 09:22:09;;;;;;;;;;;;;;;;;;5118145;28;20010;-71
2023/05/20 09:24:35;;;;;;;;;;;;;;;;;;5118170;28;20417;-70
2023/05/20 09:27:01;;;;;;;;;;;;;;;;;;5117609;28;20007;-71
2023/05/20 09:29:27;;;;;;;;;;;;;;;;;;5118072;28;19962;-70
2023/05/20 09:31:53;;;;;;;;;;;;;;;;;;5117976;28;19971;-70
2023/05/20 09:34:19;;;;;;;;;;;;;;;;;;5117565;28;19959;-71
2023/05/20 09:36:45;;;;;;;;;;;;;;;;;;5118121;28;19955;-71
2023/05/20 09:39:11;;;;;;;;;;;;;;;;;;5117369;28;20341;-71
2023/05/20 09:41:37;;;;;;;;;;;;;;;;;;5117128;28;20434;-71
2023/05/20 09:44:03;;;;;;;;;;;;;;;;;;5117310;28;19955;-71
2023/05/20 09:46:28;;;;;;;;;;;;;;;;;;5117535;28;20020;-71
2023/05/20 09:48:54;;;;;;;;;;;;;;;;;;5116187;28;20327;-71
2023/05/20 09:51:20;;;;;;;;;;;;;;;;;;5116915;28;19954;-71
2023/05/20 09:53:46;;;;;;;;;;;;;;;;;;5117409;28;19953;-71
2023/05/20 09:56:12;;;;;;;;;;;;;;;;;;5116132;28;20060;-72
2023/05/20 09:58:38;;;;;;;;;;;;;;;;;;5116974;28;19959;-71
2023/05/20 10:01:04;;;;;;;;;;;;;;;;;;5117377;28;19958;-72
2023/05/20 10:03:30;;;;;;;;;;;;;;;;;;5117233;28;19955;-71
2023/05/20 10:05:56;;;;;;;;;;;;;;;;;;5117191;28;19955;-71
2023/05/20 10:08:22;;;;;;;;;;;;;;;;;;5117098;28;20051;-71
2023/05/20 10:10:48;;;;;;;;;;;;;;;;;;5116792;28;19960;-72
2023/05/20 10:13:14;;;;;;;;;;;;;;;;;;5117055;28;19958;-71
2023/05/20 10:15:40;;;;;;;;;;;;;;;;;;5116760;28;19955;-72
2023/05/20 10:18:06;;;;;;;;;;;;;;;;;;5098113;28;19965;-71
2023/05/20 10:20:32;;;;;;;;;;;;;;;;;;5116976;28;20052;-71
2023/05/20 10:22:58;;;;;;;;;;;;;;;;;;5116286;28;20386;-71
2023/05/20 10:25:25;;;;;;;;;;;;;;;;;;5116365;28;19959;-72
2023/05/20 10:27:51;;;;;;;;;;;;;;;;;;5116267;28;20011;-72
2023/05/20 10:30:17;;;;;;;;;;;;;;;;;;5115857;28;20312;-71
2023/05/20 10:32:43;;;;;;;;;;;;;;;;;;5115879;28;20013;-72
2023/05/20 10:35:09;;;;;;;;;;;;;;;;;;5116511;28;20043;-71
2023/05/20 10:37:35;;;;;;;;;;;;;;;;;;5116594;28;19959;-71
2023/05/20 10:40:01;;;;;;;;;;;;;;;;;;5116027;28;19995;-72
2023/05/20 10:42:27;;;;;;;;;;;;;;;;;;5115879;28;20448;-71
2023/05/20 10:44:53;;;;;;;;;;;;;;;;;;5116029;28;19955;-71
2023/05/20 10:47:20;;;;;;;;;;;;;;;;;;5115780;28;20496;-72
2023/05/20 10:49:46;;;;;;;;;;;;;;;;;;5097421;28;19990;-71
2023/05/20 10:52:12;;;;;;;;;;;;;;;;;;5115698;28;19962;-72
2023/05/20 10:54:38;;;;;;;;;;;;;;;;;;5115455;28;19955;-71
2023/05/20 10:57:04;;;;;;;;;;;;;;;;;;5115537;28;19962;-72
2023/05/20 10:59:30;;;;;;;;;;;;;;;;;;5115387;28;19993;-70
2023/05/20 11:01:55;;;;;;;;;;;;;;;;;;5115137;28;19975;-71
2023/05/20 11:04:21;;;;;;;;;;;;;;;;;;5115845;28;20045;-71
2023/05/20 11:06:47;;;;;;;;;;;;;;;;;;5115537;28;19955;-72
2023/05/20 11:09:13;;;;;;;;;;;;;;;;;;5114600;28;19962;-70
2023/05/20 11:11:39;;;;;;;;;;;;;;;;;;5114152;28;19958;-71
2023/05/20 11:14:05;;;;;;;;;;;;;;;;;;5096234;28;19959;-71
2023/05/20 11:16:31;;;;;;;;;;;;;;;;;;5114653;28;20320;-71
2023/05/20 11:18:57;;;;;;;;;;;;;;;;;;5114772;28;19959;-69
2023/05/20 11:21:23;;;;;;;;;;;;;;;;;;5115071;28;20024;-71
2023/05/20 11:23:49;;;;;;;;;;;;;;;;;;5115929;28;20436;-71
2023/05/20 11:26:15;;;;;;;;;;;;;;;;;;5115281;28;20045;-70
2023/05/20 11:28:41;;;;;;;;;;;;;;;;;;5114825;28;19955;-71
2023/05/20 11:31:07;;;;;;;;;;;;;;;;;;5115716;28;19995;-71
2023/05/20 11:33:33;;;;;;;;;;;;;;;;;;5115372;28;19955;-71
2023/05/20 11:35:58;;;;;;;;;;;;;;;;;;5115181;28;19990;-71
2023/05/20 11:38:24;;;;;;;;;;;;;;;;;;5115058;28;20339;-71
2023/05/20 11:40:50;;;;;;;;;;;;;;;;;;5113637;28;19991;-71
2023/05/20 11:43:16;;;;;;;;;;;;;;;;;;5115260;28;20041;-71
2023/05/20 11:45:42;;;;;;;;;;;;;;;;;;5096288;28;20469;-71
2023/05/20 11:48:08;;;;;;;;;;;;;;;;;;5114710;28;19961;-71
2023/05/20 11:50:35;;;;;;;;;;;;;;;;;;5114886;28;20063;-71
2023/05/20 11:53:01;;;;;;;;;;;;;;;;;;5114806;28;19955;-72
2023/05/20 11:55:27;;;;;;;;;;;;;;;;;;5114612;28;19955;-71
2023/05/20 11:57:53;;;;;;;;;;;;;;;;;;5114615;28;19955;-72
2023/05/20 12:00:19;;;;;;;;;;;;;;;;;;5114862;28;19962;-70
2023/05/20 12:02:45;;;;;;;;;;;;;;;;;;5114433;28;19979;-70
2023/05/20 12:05:12;;;;;;;;;;;;;;;;;;5114899;28;20428;-71
2023/05/20 12:07:38;;;;;;;;;;;;;;;;;;5113973;28;19958;-71
2023/05/20 12:10:04;;;;;;;;;;;;;;;;;;5114136;28;20412;-72
2023/05/20 12:12:30;;;;;;;;;;;;;;;;;;5114219;28;19958;-72
2023/05/20 12:14:56;;;;;;;;;;;;;;;;;;5114285;28;19959;-72
2023/05/20 12:17:22;;;;;;;;;;;;;;;;;;5114151;28;20378;-70
2023/05/20 12:19:48;;;;;;;;;;;;;;;;;;5113681;28;19955;-70
2023/05/20 12:22:13;;;;;;;;;;;;;;;;;;5113774;28;20024;-71
2023/05/20 12:24:40;;;;;;;;;;;;;;;;;;5114386;28;19961;-72
2023/05/20 12:27:06;;;;;;;;;;;;;;;;;;5113768;28;19955;-71
2023/05/20 12:29:32;;;;;;;;;;;;;;;;;;5114346;28;19966;-71
2023/05/20 12:31:58;;;;;;;;;;;;;;;;;;5113454;28;19971;-71
2023/05/20 12:34:24;;;;;;;;;;;;;;;;;;5113314;28;20309;-71
2023/05/20 12:36:50;;;;;;;;;;;;;;;;;;5113541;28;19954;-71
2023/05/20 12:39:17;;;;;;;;;;;;;;;;;;5095052;28;19991;-71
2023/05/20 12:41:43;;;;;;;;;;;;;;;;;;5113959;28;19981;-71
2023/05/20 12:44:09;;;;;;;;;;;;;;;;;;5113689;28;19955;-70
2023/05/20 12:46:35;;;;;;;;;;;;;;;;;;5113423;28;19959;-71
2023/05/20 12:49:01;;;;;;;;;;;;;;;;;;5095220;28;20050;-70
2023/05/20 12:51:27;;;;;;;;;;;;;;;;;;5113601;28;19954;-70
2023/05/20 12:53:52;;;;;;;;;;;;;;;;;;5112721;28;20008;-70
2023/05/20 12:56:18;;;;;;;;;;;;;;;;;;5094786;28;19963;-71
2023/05/20 12:58:44;;;;;;;;;;;;;;;;;;5113654;28;20374;-71
2023/05/20 13:01:10;;;;;;;;;;;;;;;;;;5074249;28;20258;-70
2023/05/20 13:03:36;;;;;;;;;;;;;;;;;;5093129;28;19955;-72
2023/05/20 13:06:02;;;;;;;;;;;;;;;;;;5092993;28;19955;-71
2023/05/20 13:08:28;;;;;;;;;;;;;;;;;;5092833;28;19955;-72
2023/05/20 13:10:54;;;;;;;;;;;;;;;;;;5092930;28;19962;-71
2023/05/20 13:13:20;;;;;;;;;;;;;;;;;;5092833;28;20359;-72
2023/05/20 13:15:48;;;;;;;;;;;;;;;;;;5092701;28;19990;-71
2023/05/20 13:18:15;;;;;;;;;;;;;;;;;;5092815;28;19963;-70
2023/05/20 13:20:41;;;;;;;;;;;;;;;;;;5092298;28;20041;-71
2023/05/20 13:23:07;;;;;;;;;;;;;;;;;;5090903;28;20000;-71
2023/05/20 13:25:32;;;;;;;;;;;;;;;;;;5092474;28;19966;-68
2023/05/20 13:27:58;;;;;;;;;;;;;;;;;;5092071;28;19998;-68
2023/05/20 13:30:24;;;;;;;;;;;;;;;;;;5092404;28;20420;-68
2023/05/20 13:32:50;;;;;;;;;;;;;;;;;;5092964;28;19959;-68
2023/05/20 13:35:17;;;;;;;;;;;;;;;;;;5093014;28;19955;-68
2023/05/20 13:37:42;;;;;;;;;;;;;;;;;;5092719;28;19995;-68
2023/05/20 13:40:08;;;;;;;;;;;;;;;;;;5092807;28;20413;-68
2023/05/20 13:42:34;;;;;;;;;;;;;;;;;;5092749;28;19998;-68
2023/05/20 13:45:00;;;;;;;;;;;;;;;;;;5092684;28;20336;-68
2023/05/20 13:47:26;;;;;;;;;;;;;;;;;;5093145;28;19959;-68
2023/05/20 13:49:52;;;;;;;;;;;;;;;;;;5092799;28;19959;-68
2023/05/20 13:52:18;;;;;;;;;;;;;;;;;;5092504;28;19956;-68
2023/05/20 13:54:46;;;;;;;;;;;;;;;;;;5093002;28;19955;-68
2023/05/20 13:57:12;;;;;;;;;;;;;;;;;;5092274;28;20332;-69
2023/05/20 13:59:38;;;;;;;;;;;;;;;;;;5093083;28;19955;-68
2023/05/20 14:02:04;;;;;;;;;;;;;;;;;;5092524;28;19975;-68
2023/05/20 14:04:30;;;;;;;;;;;;;;;;;;5094288;28;19963;-68
2023/05/20 14:06:56;;;;;;;;;;;;;;;;;;5096626;28;19963;-68
2023/05/20 14:09:22;;;;;;;;;;;;;;;;;;5096425;28;19955;-68
2023/05/20 14:11:50;;;;;;;;;;;;;;;;;;5096108;28;20038;-68
2023/05/20 14:14:16;;;;;;;;;;;;;;;;;;5096400;28;19967;-68
2023/05/20 14:16:42;;;;;;;;;;;;;;;;;;5096134;28;19955;-68
2023/05/20 14:19:07;;;;;;;;;;;;;;;;;;5096677;28;20045;-68
2023/05/20 14:21:33;;;;;;;;;;;;;;;;;;5096036;28;20073;-68
2023/05/20 14:24:00;;;;;;;;;;;;;;;;;;5095884;28;19956;-68
2023/05/20 14:26:26;;;;;;;;;;;;;;;;;;5095879;28;19955;-68
2023/05/20 14:28:51;;;;;;;;;;;;;;;;;;5095728;28;19955;-68
2023/05/20 14:31:17;;;;;;;;;;;;;;;;;;5096417;28;20023;-68
2023/05/20 14:33:43;;;;;;;;;;;;;;;;;;5095807;28;19955;-68
2023/05/20 14:36:09;;;;;;;;;;;;;;;;;;5095097;28;19955;-68
2023/05/20 14:38:35;;;;;;;;;;;;;;;;;;5076543;28;19960;-68
2023/05/20 14:41:01;;;;;;;;;;;;;;;;;;5095882;28;19991;-68
2023/05/20 14:43:27;;;;;;;;;;;;;;;;;;5095458;28;20325;-68
2023/05/20 14:45:53;;;;;;;;;;;;;;;;;;5095474;28;20002;-68
2023/05/20 14:48:19;;;;;;;;;;;;;;;;;;5095586;28;19955;-68
2023/05/20 14:50:45;;;;;;;;;;;;;;;;;;5095655;28;19959;-68
2023/05/20 14:53:11;;;;;;;;;;;;;;;;;;5095542;28;19955;-68
2023/05/20 14:55:37;;;;;;;;;;;;;;;;;;5095859;28;20439;-68
2023/05/20 14:58:03;;;;;;;;;;;;;;;;;;5095379;28;19955;-68
2023/05/20 15:00:28;;;;;;;;;;;;;;;;;;5095320;28;20326;-68
2023/05/20 15:02:54;;;;;;;;;;;;;;;;;;5095174;28;20071;-68
2023/05/20 15:05:20;;;;;;;;;;;;;;;;;;5095958;28;20058;-68
2023/05/20 15:07:46;;;;;;;;;;;;;;;;;;5095231;28;19956;-68
2023/05/20 15:10:12;;;;;;;;;;;;;;;;;;5095139;28;19962;-68
2023/05/20 15:12:38;;;;;;;;;;;;;;;;;;5093426;28;19955;-68
2023/05/20 15:15:04;;;;;;;;;;;;;;;;;;5093973;28;20107;-68
2023/05/20 15:17:30;;;;;;;;;;;;;;;;;;5092801;28;20381;-68
2023/05/20 15:19:56;;;;;;;;;;;;;;;;;;5094272;28;19981;-68
2023/05/20 15:22:22;;;;;;;;;;;;;;;;;;5094955;28;20348;-68
2023/05/20 15:24:47;;;;;;;;;;;;;;;;;;5094763;28;20316;-68
2023/05/20 15:27:13;;;;;;;;;;;;;;;;;;5095057;28;19955;-67
2023/05/20 15:29:39;;;;;;;;;;;;;;;;;;5076613;28;19965;-68
2023/05/20 15:32:05;;;;;;;;;;;;;;;;;;5094470;28;20054;-68
2023/05/20 15:34:31;;;;;;;;;;;;;;;;;;5094904;28;19955;-68
2023/05/20 15:36:57;;;;;;;;;;;;;;;;;;5093552;28;19959;-68
2023/05/20 15:39:24;;;;;;;;;;;;;;;;;;5093756;28;19987;-68
2023/05/20 15:41:51;;;;;;;;;;;;;;;;;;5093045;28;20007;-68
2023/05/20 15:44:17;;;;;;;;;;;;;;;;;;5092294;28;20314;-68
2023/05/20 15:46:43;;;;;;;;;;;;;;;;;;5093449;28;20009;-68
2023/05/20 15:49:10;;;;;;;;;;;;;;;;;;5094159;28;20021;-68
2023/05/20 15:51:36;;;;;;;;;;;;;;;;;;5094491;28;19962;-68
2023/05/20 15:54:02;;;;;;;;;;;;;;;;;;5093408;28;19955;-68
2023/05/20 15:56:27;;;;;;;;;;;;;;;;;;5094691;28;19955;-68
2023/05/20 15:58:53;;;;;;;;;;;;;;;;;;5075560;28;19966;-68
2023/05/20 16:01:21;;;;;;;;;;;;;;;;;;5094050;28;19982;-68
2023/05/20 16:03:47;;;;;;;;;;;;;;;;;;5093766;28;19955;-68
2023/05/20 16:06:13;;;;;;;;;;;;;;;;;;5093961;28;19956;-68
2023/05/20 16:08:40;;;;;;;;;;;;;;;;;;5093677;28;20340;-68
2023/05/20 16:11:06;;;;;;;;;;;;;;;;;;5093646;28;19960;-68
2023/05/20 16:13:32;;;;;;;;;;;;;;;;;;5094267;28;20286;-68
2023/05/20 16:15:58;;;;;;;;;;;;;;;;;;5093468;28;19955;-68
2023/05/20 16:18:24;;;;;;;;;;;;;;;;;;5092998;28;19959;-69
2023/05/20 16:20:50;;;;;;;;;;;;;;;;;;5092024;28;20046;-68
2023/05/20 16:23:16;;;;;;;;;;;;;;;;;;5093318;28;20024;-68
2023/05/20 16:25:42;;;;;;;;;;;;;;;;;;5093019;28;19956;-68
2023/05/20 16:28:08;;;;;;;;;;;;;;;;;;5091646;28;20428;-68
2023/05/20 16:30:33;;;;;;;;;;;;;;;;;;5093117;28;20049;-68
2023/05/20 16:32:59;;;;;;;;;;;;;;;;;;5092644;28;20482;-68
2023/05/20 16:35:25;;;;;;;;;;;;;;;;;;5092984;28;19955;-68
2023/05/20 16:37:51;;;;;;;;;;;;;;;;;;5093846;28;19955;-68